TimeCAT,TemperatureF,Dew PointF,Humidity,Sea Level PressureIn,VisibilityMPH,Wind Direction,Wind SpeedMPH,Gust SpeedMPH,PrecipitationIn,Events,Conditions,WindDirDegrees,DateUTC
7:00 AM,68.0,53.6,60,30.12,5.6,ENE,13.8,-,N/A,,Partly Cloudy,60,2012-10-17 05:00:00
8:00 AM,72,56,47,,6,ENE,19.6,,,,Haze,70,2012-10-17 06:00:00
8:00 AM,71.6,55.4,57,30.12,5.6,ENE,19.6,-,N/A,,Partly Cloudy,70,2012-10-17 06:00:00
9:00 AM,75.2,53.6,47,30.18,5.6,ENE,18.4,-,N/A,,Clear,70,2012-10-17 07:00:00
10:00 AM,77.0,53.6,44,30.12,5.6,ENE,19.6,-,N/A,,Clear,70,2012-10-17 08:00:00
11:00 AM,80.6,51.8,37,30.12,-9999.0,ENE,11.5,-,N/A,,Clear,70,2012-10-17 09:00:00
12:00 PM,84.2,51.8,33,30.12,-9999.0,NE,8.1,-,N/A,,Clear,40,2012-10-17 10:00:00
1:00 PM,86.0,51.8,31,30.09,-9999.0,East,5.8,-,N/A,,Clear,80,2012-10-17 11:00:00
2:00 PM,86,52,21,,9,East,5.8,,,,Haze,90,2012-10-17 12:00:00
2:00 PM,86.0,51.8,31,30.06,-9999.0,East,5.8,-,N/A,,Clear,90,2012-10-17 12:00:00
3:00 PM,86.0,50.0,29,30.04,-9999.0,ENE,8.1,-,N/A,,Clear,70,2012-10-17 13:00:00
4:00 PM,86.0,51.8,31,30.04,-9999.0,NE,8.1,-,N/A,,Clear,50,2012-10-17 14:00:00
5:00 PM,84.2,48.2,29,30.04,6.2,East,6.9,-,N/A,,Partly Cloudy,80,2012-10-17 15:00:00
6:00 PM,73.4,57.2,57,30.09,6.2,SSW,6.9,-,N/A,,Mostly Cloudy,200,2012-10-17 16:00:00
7:00 PM,68.0,59.0,73,30.12,6.2,SSE,15.0,-,N/A,Rain,Light Rain Showers,160,2012-10-17 17:00:00
8:00 PM,66,59,73,,9,SE,11.5,,,Rain,Light Rain Showers,130,2012-10-17 18:00:00
8:00 PM,66.2,59.0,78,30.12,6.2,SE,11.5,-,N/A,,Mostly Cloudy,130,2012-10-17 18:00:00
9:00 PM,68.0,59.0,73,30.15,-9999.0,SW,4.6,-,N/A,,Clear,220,2012-10-17 19:00:00
10:00 PM,66.2,62.6,88,30.12,-9999.0,SE,3.5,-,N/A,,Clear,140,2012-10-17 20:00:00
11:00 PM,66.2,59.0,78,30.12,-9999.0,Calm,Calm,-,N/A,,Clear,0,2012-10-17 21:00:00